sensor_id;sensor_type;location;lat;lon;timestamp;P1;durP1;ratioP1;P2;durP2;ratioP2
53666;SDS011;39568;51.026;5.468;2023-02-12T00:00:04;106.80;;;41.53;;
53666;SDS011;39568;51.026;5.468;2023-02-12T00:02:32;109.13;;;43.42;;
53666;SDS011;39568;51.026;5.468;2023-02-12T00:04:59;99.97;;;38.97;;
53666;SDS011;39568;51.026;5.468;2023-02-12T00:07:28;106.88;;;41.92;;
53666;SDS011;39568;51.026;5.468;2023-02-12T00:09:55;118.95;;;43.15;;
53666;SDS011;39568;51.026;5.468;2023-02-12T00:12:21;103.60;;;42.60;;
53666;SDS011;39568;51.026;5.468;2023-02-12T00:14:50;106.13;;;42.95;;
53666;SDS011;39568;51.026;5.468;2023-02-12T00:17:16;120.13;;;44.38;;
53666;SDS011;39568;51.026;5.468;2023-02-12T00:19:43;110.22;;;44.00;;
53666;SDS011;39568;51.026;5.468;2023-02-12T00:22:10;111.45;;;42.90;;
53666;SDS011;39568;51.026;5.468;2023-02-12T00:24:36;107.90;;;41.03;;
53666;SDS011;39568;51.026;5.468;2023-02-12T00:27:03;102.18;;;43.50;;
53666;SDS011;39568;51.026;5.468;2023-02-12T00:29:30;104.82;;;41.00;;
53666;SDS011;39568;51.026;5.468;2023-02-12T00:31:58;112.10;;;43.42;;
53666;SDS011;39568;51.026;5.468;2023-02-12T00:34:25;125.18;;;46.10;;
53666;SDS011;39568;51.026;5.468;2023-02-12T00:36:52;111.25;;;41.72;;
53666;SDS011;39568;51.026;5.468;2023-02-12T00:39:22;120.05;;;44.88;;
53666;SDS011;39568;51.026;5.468;2023-02-12T00:41:49;117.57;;;46.38;;
53666;SDS011;39568;51.026;5.468;2023-02-12T00:44:16;137.35;;;47.25;;
53666;SDS011;39568;51.026;5.468;2023-02-12T00:46:42;127.65;;;48.05;;
53666;SDS011;39568;51.026;5.468;2023-02-12T00:49:10;124.05;;;48.92;;
53666;SDS011;39568;51.026;5.468;2023-02-12T00:51:38;124.18;;;45.35;;
53666;SDS011;39568;51.026;5.468;2023-02-12T00:54:05;114.32;;;42.60;;
53666;SDS011;39568;51.026;5.468;2023-02-12T00:56:31;120.40;;;43.85;;
53666;SDS011;39568;51.026;5.468;2023-02-12T00:58:58;114.18;;;42.20;;
53666;SDS011;39568;51.026;5.468;2023-02-12T01:01:25;112.25;;;44.35;;
53666;SDS011;39568;51.026;5.468;2023-02-12T01:03:51;108.85;;;44.35;;
53666;SDS011;39568;51.026;5.468;2023-02-12T01:06:20;105.30;;;43.75;;
53666;SDS011;39568;51.026;5.468;2023-02-12T01:08:50;113.43;;;40.92;;
53666;SDS011;39568;51.026;5.468;2023-02-12T01:11:18;119.55;;;44.17;;
53666;SDS011;39568;51.026;5.468;2023-02-12T01:13:45;102.85;;;41.38;;
53666;SDS011;39568;51.026;5.468;2023-02-12T01:16:13;116.18;;;44.83;;
53666;SDS011;39568;51.026;5.468;2023-02-12T01:18:42;109.88;;;42.78;;
53666;SDS011;39568;51.026;5.468;2023-02-12T01:21:11;121.03;;;43.58;;
53666;SDS011;39568;51.026;5.468;2023-02-12T01:23:40;109.82;;;43.20;;
53666;SDS011;39568;51.026;5.468;2023-02-12T01:26:07;110.90;;;42.25;;
53666;SDS011;39568;51.026;5.468;2023-02-12T01:28:36;116.13;;;45.63;;
53666;SDS011;39568;51.026;5.468;2023-02-12T01:31:06;110.05;;;43.45;;
53666;SDS011;39568;51.026;5.468;2023-02-12T01:33:34;113.38;;;43.67;;
53666;SDS011;39568;51.026;5.468;2023-02-12T01:36:00;109.47;;;42.13;;
53666;SDS011;39568;51.026;5.468;2023-02-12T01:38:27;119.10;;;45.85;;
53666;SDS011;39568;51.026;5.468;2023-02-12T01:41:02;115.05;;;43.67;;
53666;SDS011;39568;51.026;5.468;2023-02-12T01:43:32;118.85;;;45.03;;
53666;SDS011;39568;51.026;5.468;2023-02-12T01:45:59;115.82;;;44.72;;
53666;SDS011;39568;51.026;5.468;2023-02-12T01:48:28;111.53;;;43.53;;
53666;SDS011;39568;51.026;5.468;2023-02-12T01:50:57;134.75;;;48.42;;
53666;SDS011;39568;51.026;5.468;2023-02-12T01:53:27;120.70;;;48.42;;
53666;SDS011;39568;51.026;5.468;2023-02-12T01:55:59;128.65;;;47.33;;
53666;SDS011;39568;51.026;5.468;2023-02-12T01:58:29;123.68;;;47.60;;
53666;SDS011;39568;51.026;5.468;2023-02-12T02:01:01;132.52;;;47.85;;
53666;SDS011;39568;51.026;5.468;2023-02-12T02:03:31;119.03;;;48.45;;
53666;SDS011;39568;51.026;5.468;2023-02-12T02:06:01;118.45;;;47.80;;
53666;SDS011;39568;51.026;5.468;2023-02-12T02:08:32;113.88;;;45.63;;
53666;SDS011;39568;51.026;5.468;2023-02-12T02:11:00;120.82;;;45.75;;
53666;SDS011;39568;51.026;5.468;2023-02-12T02:13:51;115.00;;;45.17;;
53666;SDS011;39568;51.026;5.468;2023-02-12T02:16:35;119.20;;;43.42;;
53666;SDS011;39568;51.026;5.468;2023-02-12T02:19:07;124.35;;;44.85;;
53666;SDS011;39568;51.026;5.468;2023-02-12T02:21:50;114.35;;;43.92;;
53666;SDS011;39568;51.026;5.468;2023-02-12T02:24:56;126.35;;;46.03;;
53666;SDS011;39568;51.026;5.468;2023-02-12T02:27:45;125.30;;;49.75;;
53666;SDS011;39568;51.026;5.468;2023-02-12T02:30:29;130.63;;;47.65;;
53666;SDS011;39568;51.026;5.468;2023-02-12T02:33:10;125.35;;;48.92;;
53666;SDS011;39568;51.026;5.468;2023-02-12T02:35:45;131.65;;;48.90;;
53666;SDS011;39568;51.026;5.468;2023-02-12T02:38:20;133.88;;;50.03;;
53666;SDS011;39568;51.026;5.468;2023-02-12T02:43:21;130.93;;;47.90;;
53666;SDS011;39568;51.026;5.468;2023-02-12T02:45:58;137.18;;;50.17;;
53666;SDS011;39568;51.026;5.468;2023-02-12T02:48:31;136.68;;;50.13;;
53666;SDS011;39568;51.026;5.468;2023-02-12T02:51:02;130.15;;;46.42;;
53666;SDS011;39568;51.026;5.468;2023-02-12T02:53:32;127.63;;;48.17;;
53666;SDS011;39568;51.026;5.468;2023-02-12T02:56:05;120.85;;;47.70;;
53666;SDS011;39568;51.026;5.468;2023-02-12T02:58:36;137.98;;;46.67;;
53666;SDS011;39568;51.026;5.468;2023-02-12T03:03:37;122.97;;;46.90;;
53666;SDS011;39568;51.026;5.468;2023-02-12T03:08:36;120.45;;;44.92;;
53666;SDS011;39568;51.026;5.468;2023-02-12T03:11:09;119.82;;;45.53;;
53666;SDS011;39568;51.026;5.468;2023-02-12T03:13:40;139.15;;;45.17;;
53666;SDS011;39568;51.026;5.468;2023-02-12T03:16:14;127.80;;;47.53;;
53666;SDS011;39568;51.026;5.468;2023-02-12T03:18:45;124.57;;;44.75;;
53666;SDS011;39568;51.026;5.468;2023-02-12T03:21:21;132.82;;;48.88;;
53666;SDS011;39568;51.026;5.468;2023-02-12T03:23:54;126.57;;;46.63;;
53666;SDS011;39568;51.026;5.468;2023-02-12T03:26:33;133.85;;;46.22;;
53666;SDS011;39568;51.026;5.468;2023-02-12T03:29:06;130.50;;;47.58;;
53666;SDS011;39568;51.026;5.468;2023-02-12T03:31:35;113.82;;;43.78;;
53666;SDS011;39568;51.026;5.468;2023-02-12T03:34:10;122.40;;;43.10;;
53666;SDS011;39568;51.026;5.468;2023-02-12T03:36:44;120.45;;;43.40;;
53666;SDS011;39568;51.026;5.468;2023-02-12T03:39:19;135.77;;;46.03;;
53666;SDS011;39568;51.026;5.468;2023-02-12T03:41:57;112.68;;;45.22;;
53666;SDS011;39568;51.026;5.468;2023-02-12T03:44:33;113.95;;;45.20;;
53666;SDS011;39568;51.026;5.468;2023-02-12T03:49:44;120.73;;;46.27;;
53666;SDS011;39568;51.026;5.468;2023-02-12T03:52:17;115.25;;;42.92;;
53666;SDS011;39568;51.026;5.468;2023-02-12T03:54:44;116.95;;;44.05;;
53666;SDS011;39568;51.026;5.468;2023-02-12T03:57:13;110.90;;;45.25;;
53666;SDS011;39568;51.026;5.468;2023-02-12T03:59:43;98.70;;;42.78;;
53666;SDS011;39568;51.026;5.468;2023-02-12T04:02:11;102.82;;;42.72;;
53666;SDS011;39568;51.026;5.468;2023-02-12T04:04:42;131.30;;;46.92;;
53666;SDS011;39568;51.026;5.468;2023-02-12T04:07:15;115.20;;;43.83;;
53666;SDS011;39568;51.026;5.468;2023-02-12T04:09:45;105.40;;;43.35;;
53666;SDS011;39568;51.026;5.468;2023-02-12T04:15:04;109.13;;;43.90;;
53666;SDS011;39568;51.026;5.468;2023-02-12T04:17:46;132.23;;;46.95;;
53666;SDS011;39568;51.026;5.468;2023-02-12T04:20:24;126.88;;;43.47;;
53666;SDS011;39568;51.026;5.468;2023-02-12T04:22:59;110.60;;;45.58;;
53666;SDS011;39568;51.026;5.468;2023-02-12T04:25:45;123.90;;;46.67;;
53666;SDS011;39568;51.026;5.468;2023-02-12T04:28:24;123.28;;;42.83;;
53666;SDS011;39568;51.026;5.468;2023-02-12T04:31:00;117.38;;;48.17;;
53666;SDS011;39568;51.026;5.468;2023-02-12T04:33:37;114.47;;;47.35;;
53666;SDS011;39568;51.026;5.468;2023-02-12T04:36:12;119.43;;;46.72;;
53666;SDS011;39568;51.026;5.468;2023-02-12T04:38:43;115.03;;;45.42;;
53666;SDS011;39568;51.026;5.468;2023-02-12T04:41:13;117.93;;;42.47;;
53666;SDS011;39568;51.026;5.468;2023-02-12T04:43:41;123.22;;;43.33;;
53666;SDS011;39568;51.026;5.468;2023-02-12T04:46:10;127.07;;;46.92;;
53666;SDS011;39568;51.026;5.468;2023-02-12T04:48:45;112.60;;;44.70;;
53666;SDS011;39568;51.026;5.468;2023-02-12T04:51:16;116.85;;;43.80;;
53666;SDS011;39568;51.026;5.468;2023-02-12T04:53:44;113.03;;;45.35;;
53666;SDS011;39568;51.026;5.468;2023-02-12T04:56:11;107.90;;;45.78;;
53666;SDS011;39568;51.026;5.468;2023-02-12T04:58:38;100.20;;;41.92;;
53666;SDS011;39568;51.026;5.468;2023-02-12T05:01:05;104.63;;;42.75;;
53666;SDS011;39568;51.026;5.468;2023-02-12T05:03:33;102.68;;;42.05;;
53666;SDS011;39568;51.026;5.468;2023-02-12T05:06:03;118.05;;;41.40;;
53666;SDS011;39568;51.026;5.468;2023-02-12T05:08:30;110.93;;;45.25;;
53666;SDS011;39568;51.026;5.468;2023-02-12T05:11:01;105.97;;;45.42;;
53666;SDS011;39568;51.026;5.468;2023-02-12T05:13:29;109.80;;;43.03;;
53666;SDS011;39568;51.026;5.468;2023-02-12T05:15:59;111.07;;;44.95;;
53666;SDS011;39568;51.026;5.468;2023-02-12T05:18:29;108.53;;;42.17;;
53666;SDS011;39568;51.026;5.468;2023-02-12T05:20:56;110.93;;;44.30;;
53666;SDS011;39568;51.026;5.468;2023-02-12T05:23:26;107.95;;;44.22;;
53666;SDS011;39568;51.026;5.468;2023-02-12T05:25:58;105.78;;;42.30;;
53666;SDS011;39568;51.026;5.468;2023-02-12T05:28:26;105.22;;;41.25;;
53666;SDS011;39568;51.026;5.468;2023-02-12T05:30:53;116.95;;;43.80;;
53666;SDS011;39568;51.026;5.468;2023-02-12T05:33:23;110.28;;;44.47;;
53666;SDS011;39568;51.026;5.468;2023-02-12T05:36:01;99.05;;;43.35;;
53666;SDS011;39568;51.026;5.468;2023-02-12T05:38:31;102.53;;;42.47;;
53666;SDS011;39568;51.026;5.468;2023-02-12T05:41:00;104.07;;;39.92;;
53666;SDS011;39568;51.026;5.468;2023-02-12T05:43:27;113.40;;;43.90;;
53666;SDS011;39568;51.026;5.468;2023-02-12T05:45:56;211.70;;;91.65;;
53666;SDS011;39568;51.026;5.468;2023-02-12T05:48:33;171.45;;;71.88;;
53666;SDS011;39568;51.026;5.468;2023-02-12T05:51:05;112.27;;;43.90;;
53666;SDS011;39568;51.026;5.468;2023-02-12T05:53:35;109.05;;;43.78;;
53666;SDS011;39568;51.026;5.468;2023-02-12T05:56:05;114.37;;;45.03;;
53666;SDS011;39568;51.026;5.468;2023-02-12T05:58:37;126.85;;;55.67;;
53666;SDS011;39568;51.026;5.468;2023-02-12T06:01:08;127.05;;;54.28;;
53666;SDS011;39568;51.026;5.468;2023-02-12T06:03:39;125.05;;;48.55;;
53666;SDS011;39568;51.026;5.468;2023-02-12T06:06:06;111.85;;;44.45;;
53666;SDS011;39568;51.026;5.468;2023-02-12T06:08:35;124.65;;;45.33;;
53666;SDS011;39568;51.026;5.468;2023-02-12T06:11:02;112.00;;;45.58;;
53666;SDS011;39568;51.026;5.468;2023-02-12T06:13:31;134.25;;;45.67;;
53666;SDS011;39568;51.026;5.468;2023-02-12T06:15:58;118.40;;;47.45;;
53666;SDS011;39568;51.026;5.468;2023-02-12T06:18:25;130.57;;;45.97;;
53666;SDS011;39568;51.026;5.468;2023-02-12T06:20:56;123.78;;;47.78;;
53666;SDS011;39568;51.026;5.468;2023-02-12T06:23:23;110.80;;;45.22;;
53666;SDS011;39568;51.026;5.468;2023-02-12T06:25:57;133.25;;;45.22;;
53666;SDS011;39568;51.026;5.468;2023-02-12T06:28:24;138.48;;;47.72;;
53666;SDS011;39568;51.026;5.468;2023-02-12T06:30:51;126.85;;;46.83;;
53666;SDS011;39568;51.026;5.468;2023-02-12T06:33:17;124.40;;;47.22;;
53666;SDS011;39568;51.026;5.468;2023-02-12T06:35:44;113.68;;;44.25;;
53666;SDS011;39568;51.026;5.468;2023-02-12T06:38:11;115.57;;;45.60;;
53666;SDS011;39568;51.026;5.468;2023-02-12T06:40:39;111.22;;;45.53;;
53666;SDS011;39568;51.026;5.468;2023-02-12T06:43:09;111.45;;;41.47;;
53666;SDS011;39568;51.026;5.468;2023-02-12T06:45:37;120.25;;;47.78;;
53666;SDS011;39568;51.026;5.468;2023-02-12T06:48:04;115.45;;;47.33;;
53666;SDS011;39568;51.026;5.468;2023-02-12T06:50:31;121.13;;;46.00;;
53666;SDS011;39568;51.026;5.468;2023-02-12T06:52:58;116.13;;;43.65;;
53666;SDS011;39568;51.026;5.468;2023-02-12T06:55:25;122.45;;;46.03;;
53666;SDS011;39568;51.026;5.468;2023-02-12T06:57:52;135.32;;;50.03;;
53666;SDS011;39568;51.026;5.468;2023-02-12T07:00:21;111.88;;;45.60;;
53666;SDS011;39568;51.026;5.468;2023-02-12T07:02:51;118.97;;;44.83;;
53666;SDS011;39568;51.026;5.468;2023-02-12T07:05:22;134.07;;;49.17;;
53666;SDS011;39568;51.026;5.468;2023-02-12T07:07:49;116.82;;;45.55;;
53666;SDS011;39568;51.026;5.468;2023-02-12T07:10:16;120.15;;;44.60;;
53666;SDS011;39568;51.026;5.468;2023-02-12T07:12:45;108.15;;;42.10;;
53666;SDS011;39568;51.026;5.468;2023-02-12T07:15:16;108.13;;;42.70;;
53666;SDS011;39568;51.026;5.468;2023-02-12T07:17:45;112.70;;;45.78;;
53666;SDS011;39568;51.026;5.468;2023-02-12T07:20:17;107.22;;;42.50;;
53666;SDS011;39568;51.026;5.468;2023-02-12T07:22:47;113.57;;;46.30;;
53666;SDS011;39568;51.026;5.468;2023-02-12T07:25:14;115.30;;;45.00;;
53666;SDS011;39568;51.026;5.468;2023-02-12T07:27:41;103.00;;;42.58;;
53666;SDS011;39568;51.026;5.468;2023-02-12T07:30:08;108.95;;;42.60;;
53666;SDS011;39568;51.026;5.468;2023-02-12T07:32:35;118.25;;;43.35;;
53666;SDS011;39568;51.026;5.468;2023-02-12T07:35:03;113.15;;;49.17;;
53666;SDS011;39568;51.026;5.468;2023-02-12T07:37:30;116.45;;;48.17;;
53666;SDS011;39568;51.026;5.468;2023-02-12T07:40:05;124.53;;;45.22;;
53666;SDS011;39568;51.026;5.468;2023-02-12T07:42:34;132.65;;;47.17;;
53666;SDS011;39568;51.026;5.468;2023-02-12T07:45:01;112.90;;;46.85;;
53666;SDS011;39568;51.026;5.468;2023-02-12T07:47:28;113.82;;;45.75;;
53666;SDS011;39568;51.026;5.468;2023-02-12T07:49:55;113.47;;;45.55;;
53666;SDS011;39568;51.026;5.468;2023-02-12T07:52:32;109.60;;;46.15;;
53666;SDS011;39568;51.026;5.468;2023-02-12T07:55:00;111.05;;;46.10;;
53666;SDS011;39568;51.026;5.468;2023-02-12T07:57:28;117.45;;;47.78;;
53666;SDS011;39568;51.026;5.468;2023-02-12T07:59:58;113.32;;;46.38;;
53666;SDS011;39568;51.026;5.468;2023-02-12T08:02:25;119.05;;;48.17;;
53666;SDS011;39568;51.026;5.468;2023-02-12T08:04:54;103.03;;;48.13;;
53666;SDS011;39568;51.026;5.468;2023-02-12T08:07:25;127.18;;;48.42;;
53666;SDS011;39568;51.026;5.468;2023-02-12T08:09:55;114.80;;;48.28;;
53666;SDS011;39568;51.026;5.468;2023-02-12T08:12:22;106.82;;;49.67;;
53666;SDS011;39568;51.026;5.468;2023-02-12T08:14:52;106.57;;;45.63;;
53666;SDS011;39568;51.026;5.468;2023-02-12T08:17:20;109.13;;;45.42;;
53666;SDS011;39568;51.026;5.468;2023-02-12T08:19:47;113.53;;;47.67;;
53666;SDS011;39568;51.026;5.468;2023-02-12T08:22:14;97.35;;;44.75;;
53666;SDS011;39568;51.026;5.468;2023-02-12T08:24:46;110.55;;;44.67;;
53666;SDS011;39568;51.026;5.468;2023-02-12T08:27:18;107.03;;;44.65;;
53666;SDS011;39568;51.026;5.468;2023-02-12T08:29:51;98.13;;;43.25;;
53666;SDS011;39568;51.026;5.468;2023-02-12T08:32:18;111.70;;;46.92;;
53666;SDS011;39568;51.026;5.468;2023-02-12T08:34:45;103.25;;;46.47;;
53666;SDS011;39568;51.026;5.468;2023-02-12T08:37:15;115.68;;;45.58;;
53666;SDS011;39568;51.026;5.468;2023-02-12T08:39:42;98.30;;;46.03;;
53666;SDS011;39568;51.026;5.468;2023-02-12T08:42:08;104.93;;;45.20;;
53666;SDS011;39568;51.026;5.468;2023-02-12T08:44:37;105.78;;;46.05;;
53666;SDS011;39568;51.026;5.468;2023-02-12T08:47:04;105.35;;;44.00;;
53666;SDS011;39568;51.026;5.468;2023-02-12T08:49:32;98.63;;;44.95;;
53666;SDS011;39568;51.026;5.468;2023-02-12T08:51:59;103.22;;;44.83;;
53666;SDS011;39568;51.026;5.468;2023-02-12T08:54:27;103.88;;;44.58;;
53666;SDS011;39568;51.026;5.468;2023-02-12T08:56:57;97.68;;;43.42;;
53666;SDS011;39568;51.026;5.468;2023-02-12T08:59:24;97.93;;;43.90;;
53666;SDS011;39568;51.026;5.468;2023-02-12T09:01:53;108.13;;;45.58;;
53666;SDS011;39568;51.026;5.468;2023-02-12T09:04:21;102.30;;;43.00;;
53666;SDS011;39568;51.026;5.468;2023-02-12T09:06:49;99.97;;;43.65;;
53666;SDS011;39568;51.026;5.468;2023-02-12T09:09:17;96.07;;;42.05;;
53666;SDS011;39568;51.026;5.468;2023-02-12T09:11:46;87.63;;;39.90;;
53666;SDS011;39568;51.026;5.468;2023-02-12T09:14:14;80.60;;;38.88;;
53666;SDS011;39568;51.026;5.468;2023-02-12T09:16:42;81.15;;;39.58;;
53666;SDS011;39568;51.026;5.468;2023-02-12T09:19:12;83.07;;;39.40;;
53666;SDS011;39568;51.026;5.468;2023-02-12T09:21:39;82.82;;;39.35;;
53666;SDS011;39568;51.026;5.468;2023-02-12T09:24:08;73.75;;;38.40;;
53666;SDS011;39568;51.026;5.468;2023-02-12T09:26:35;90.55;;;42.00;;
53666;SDS011;39568;51.026;5.468;2023-02-12T09:29:07;84.85;;;38.05;;
53666;SDS011;39568;51.026;5.468;2023-02-12T09:31:33;78.68;;;32.38;;
53666;SDS011;39568;51.026;5.468;2023-02-12T09:34:05;77.03;;;34.73;;
53666;SDS011;39568;51.026;5.468;2023-02-12T09:36:33;65.60;;;34.30;;
53666;SDS011;39568;51.026;5.468;2023-02-12T09:39:00;66.82;;;32.95;;
53666;SDS011;39568;51.026;5.468;2023-02-12T09:45:02;71.85;;;32.88;;
53666;SDS011;39568;51.026;5.468;2023-02-12T09:47:38;77.13;;;33.55;;
53666;SDS011;39568;51.026;5.468;2023-02-12T09:50:16;72.75;;;34.38;;
53666;SDS011;39568;51.026;5.468;2023-02-12T09:53:02;77.97;;;36.15;;
53666;SDS011;39568;51.026;5.468;2023-02-12T09:55:32;69.97;;;33.63;;
53666;SDS011;39568;51.026;5.468;2023-02-12T10:01:09;60.65;;;30.73;;
53666;SDS011;39568;51.026;5.468;2023-02-12T10:06:06;57.47;;;28.30;;
53666;SDS011;39568;51.026;5.468;2023-02-12T10:08:47;65.10;;;30.88;;
53666;SDS011;39568;51.026;5.468;2023-02-12T10:11:39;51.53;;;28.25;;
53666;SDS011;39568;51.026;5.468;2023-02-12T10:14:31;50.97;;;28.98;;
53666;SDS011;39568;51.026;5.468;2023-02-12T10:17:22;46.28;;;24.80;;
53666;SDS011;39568;51.026;5.468;2023-02-12T10:22:58;53.97;;;28.45;;
53666;SDS011;39568;51.026;5.468;2023-02-12T10:25:38;56.25;;;28.05;;
53666;SDS011;39568;51.026;5.468;2023-02-12T10:28:10;56.70;;;27.45;;
53666;SDS011;39568;51.026;5.468;2023-02-12T10:30:41;67.97;;;27.60;;
53666;SDS011;39568;51.026;5.468;2023-02-12T10:33:13;51.80;;;26.50;;
53666;SDS011;39568;51.026;5.468;2023-02-12T10:35:43;50.60;;;25.50;;
53666;SDS011;39568;51.026;5.468;2023-02-12T10:38:14;51.20;;;26.27;;
53666;SDS011;39568;51.026;5.468;2023-02-12T10:40:47;52.55;;;25.30;;
53666;SDS011;39568;51.026;5.468;2023-02-12T10:43:15;46.95;;;23.05;;
53666;SDS011;39568;51.026;5.468;2023-02-12T10:45:43;49.90;;;24.20;;
53666;SDS011;39568;51.026;5.468;2023-02-12T10:48:10;47.55;;;22.52;;
53666;SDS011;39568;51.026;5.468;2023-02-12T10:50:47;46.17;;;23.85;;
53666;SDS011;39568;51.026;5.468;2023-02-12T10:53:21;49.40;;;22.85;;
53666;SDS011;39568;51.026;5.468;2023-02-12T10:56:03;48.08;;;24.13;;
53666;SDS011;39568;51.026;5.468;2023-02-12T10:58:36;46.05;;;23.52;;
53666;SDS011;39568;51.026;5.468;2023-02-12T11:01:04;47.63;;;23.70;;
53666;SDS011;39568;51.026;5.468;2023-02-12T11:03:39;44.45;;;23.15;;
53666;SDS011;39568;51.026;5.468;2023-02-12T11:06:12;39.65;;;21.00;;
53666;SDS011;39568;51.026;5.468;2023-02-12T11:08:45;46.38;;;21.35;;
53666;SDS011;39568;51.026;5.468;2023-02-12T11:11:15;48.03;;;24.05;;
53666;SDS011;39568;51.026;5.468;2023-02-12T11:13:45;34.65;;;20.33;;
53666;SDS011;39568;51.026;5.468;2023-02-12T11:16:25;48.13;;;22.63;;
53666;SDS011;39568;51.026;5.468;2023-02-12T11:18:56;42.47;;;19.67;;
53666;SDS011;39568;51.026;5.468;2023-02-12T11:21:28;34.13;;;19.10;;
53666;SDS011;39568;51.026;5.468;2023-02-12T11:24:04;41.45;;;21.25;;
53666;SDS011;39568;51.026;5.468;2023-02-12T11:26:48;39.47;;;20.95;;
53666;SDS011;39568;51.026;5.468;2023-02-12T11:29:19;36.90;;;18.30;;
53666;SDS011;39568;51.026;5.468;2023-02-12T11:31:58;31.08;;;17.30;;
53666;SDS011;39568;51.026;5.468;2023-02-12T11:34:27;37.78;;;20.33;;
53666;SDS011;39568;51.026;5.468;2023-02-12T11:36:55;38.45;;;20.80;;
53666;SDS011;39568;51.026;5.468;2023-02-12T11:39:31;38.65;;;22.17;;
53666;SDS011;39568;51.026;5.468;2023-02-12T11:42:01;34.42;;;19.48;;
53666;SDS011;39568;51.026;5.468;2023-02-12T11:44:39;34.40;;;17.77;;
53666;SDS011;39568;51.026;5.468;2023-02-12T11:47:09;34.90;;;19.10;;
53666;SDS011;39568;51.026;5.468;2023-02-12T11:49:48;37.85;;;17.20;;
53666;SDS011;39568;51.026;5.468;2023-02-12T11:52:18;33.63;;;18.13;;
53666;SDS011;39568;51.026;5.468;2023-02-12T11:54:50;34.38;;;17.40;;
53666;SDS011;39568;51.026;5.468;2023-02-12T11:57:37;35.80;;;16.93;;
53666;SDS011;39568;51.026;5.468;2023-02-12T12:00:12;35.55;;;18.02;;
53666;SDS011;39568;51.026;5.468;2023-02-12T12:02:43;27.80;;;16.38;;
53666;SDS011;39568;51.026;5.468;2023-02-12T12:05:14;32.10;;;17.10;;
53666;SDS011;39568;51.026;5.468;2023-02-12T12:07:44;32.47;;;16.77;;
53666;SDS011;39568;51.026;5.468;2023-02-12T12:10:16;34.10;;;17.95;;
53666;SDS011;39568;51.026;5.468;2023-02-12T12:12:50;34.30;;;17.50;;
53666;SDS011;39568;51.026;5.468;2023-02-12T12:18:08;27.08;;;16.65;;
53666;SDS011;39568;51.026;5.468;2023-02-12T12:21:00;28.77;;;16.10;;
53666;SDS011;39568;51.026;5.468;2023-02-12T12:23:37;24.65;;;14.63;;
53666;SDS011;39568;51.026;5.468;2023-02-12T12:26:09;26.13;;;14.80;;
53666;SDS011;39568;51.026;5.468;2023-02-12T12:28:43;31.75;;;15.10;;
53666;SDS011;39568;51.026;5.468;2023-02-12T12:31:13;29.65;;;15.98;;
53666;SDS011;39568;51.026;5.468;2023-02-12T12:33:43;34.33;;;16.15;;
53666;SDS011;39568;51.026;5.468;2023-02-12T12:39:16;27.50;;;15.32;;
53666;SDS011;39568;51.026;5.468;2023-02-12T12:41:56;29.65;;;15.23;;
53666;SDS011;39568;51.026;5.468;2023-02-12T12:44:48;29.92;;;14.85;;
53666;SDS011;39568;51.026;5.468;2023-02-12T12:47:26;25.38;;;15.30;;
53666;SDS011;39568;51.026;5.468;2023-02-12T12:50:08;33.33;;;16.83;;
53666;SDS011;39568;51.026;5.468;2023-02-12T12:55:43;29.60;;;15.07;;
53666;SDS011;39568;51.026;5.468;2023-02-12T12:58:21;26.25;;;14.50;;
53666;SDS011;39568;51.026;5.468;2023-02-12T13:01:08;28.52;;;15.05;;
53666;SDS011;39568;51.026;5.468;2023-02-12T13:03:53;33.15;;;15.38;;
53666;SDS011;39568;51.026;5.468;2023-02-12T13:06:51;24.83;;;13.73;;
53666;SDS011;39568;51.026;5.468;2023-02-12T13:09:30;25.02;;;13.65;;
53666;SDS011;39568;51.026;5.468;2023-02-12T13:12:29;35.20;;;16.52;;
53666;SDS011;39568;51.026;5.468;2023-02-12T13:15:02;30.45;;;13.73;;
53666;SDS011;39568;51.026;5.468;2023-02-12T13:17:38;26.75;;;15.73;;
53666;SDS011;39568;51.026;5.468;2023-02-12T13:20:16;29.90;;;14.90;;
53666;SDS011;39568;51.026;5.468;2023-02-12T13:22:50;27.13;;;14.52;;
53666;SDS011;39568;51.026;5.468;2023-02-12T13:27:50;25.50;;;13.07;;
53666;SDS011;39568;51.026;5.468;2023-02-12T13:30:18;28.27;;;14.77;;
53666;SDS011;39568;51.026;5.468;2023-02-12T13:32:49;33.17;;;15.90;;
53666;SDS011;39568;51.026;5.468;2023-02-12T13:35:24;29.85;;;15.52;;
53666;SDS011;39568;51.026;5.468;2023-02-12T13:37:54;34.53;;;15.75;;
53666;SDS011;39568;51.026;5.468;2023-02-12T13:40:24;31.88;;;16.15;;
53666;SDS011;39568;51.026;5.468;2023-02-12T13:42:52;32.22;;;16.88;;
53666;SDS011;39568;51.026;5.468;2023-02-12T13:45:32;31.90;;;17.77;;
53666;SDS011;39568;51.026;5.468;2023-02-12T13:48:22;35.08;;;16.92;;
53666;SDS011;39568;51.026;5.468;2023-02-12T13:51:00;34.55;;;17.38;;
53666;SDS011;39568;51.026;5.468;2023-02-12T13:53:33;31.13;;;18.75;;
53666;SDS011;39568;51.026;5.468;2023-02-12T13:56:14;24.92;;;15.55;;
53666;SDS011;39568;51.026;5.468;2023-02-12T13:58:54;27.48;;;15.85;;
53666;SDS011;39568;51.026;5.468;2023-02-12T14:01:34;36.90;;;17.75;;
53666;SDS011;39568;51.026;5.468;2023-02-12T14:06:59;24.48;;;14.80;;
53666;SDS011;39568;51.026;5.468;2023-02-12T14:09:32;29.30;;;16.05;;
53666;SDS011;39568;51.026;5.468;2023-02-12T14:12:02;41.55;;;16.00;;
53666;SDS011;39568;51.026;5.468;2023-02-12T14:14:32;31.33;;;17.80;;
53666;SDS011;39568;51.026;5.468;2023-02-12T14:20:23;39.40;;;19.08;;
53666;SDS011;39568;51.026;5.468;2023-02-12T14:25:54;36.80;;;20.13;;
53666;SDS011;39568;51.026;5.468;2023-02-12T14:28:30;42.17;;;20.42;;
53666;SDS011;39568;51.026;5.468;2023-02-12T14:37:17;40.20;;;22.25;;
53666;SDS011;39568;51.026;5.468;2023-02-12T14:43:28;50.72;;;25.45;;
53666;SDS011;39568;51.026;5.468;2023-02-12T14:45:58;52.97;;;23.75;;
53666;SDS011;39568;51.026;5.468;2023-02-12T14:49:15;45.63;;;23.83;;
53666;SDS011;39568;51.026;5.468;2023-02-12T14:51:46;59.08;;;26.08;;
53666;SDS011;39568;51.026;5.468;2023-02-12T14:54:25;50.03;;;23.25;;
53666;SDS011;39568;51.026;5.468;2023-02-12T14:56:55;42.85;;;22.30;;
53666;SDS011;39568;51.026;5.468;2023-02-12T14:59:25;46.97;;;23.15;;
53666;SDS011;39568;51.026;5.468;2023-02-12T15:01:57;50.55;;;23.92;;
53666;SDS011;39568;51.026;5.468;2023-02-12T15:04:31;48.30;;;24.83;;
53666;SDS011;39568;51.026;5.468;2023-02-12T15:07:02;45.17;;;24.27;;
53666;SDS011;39568;51.026;5.468;2023-02-12T15:09:47;51.30;;;25.05;;
53666;SDS011;39568;51.026;5.468;2023-02-12T15:12:19;48.60;;;25.65;;
53666;SDS011;39568;51.026;5.468;2023-02-12T15:14:52;56.17;;;27.05;;
53666;SDS011;39568;51.026;5.468;2023-02-12T15:17:29;48.75;;;26.58;;
53666;SDS011;39568;51.026;5.468;2023-02-12T15:20:01;57.53;;;28.00;;
53666;SDS011;39568;51.026;5.468;2023-02-12T15:22:37;60.00;;;30.05;;
53666;SDS011;39568;51.026;5.468;2023-02-12T15:25:19;62.05;;;27.63;;
53666;SDS011;39568;51.026;5.468;2023-02-12T15:27:49;55.95;;;28.63;;
53666;SDS011;39568;51.026;5.468;2023-02-12T15:30:24;59.88;;;28.98;;
53666;SDS011;39568;51.026;5.468;2023-02-12T15:32:53;60.13;;;28.65;;
53666;SDS011;39568;51.026;5.468;2023-02-12T15:35:22;55.75;;;27.55;;